Time;durP1;ratioP1;P1;durP2;ratioP2;P2;SDS_P1;SDS_P2;PMS_P1;PMS_P2;Temp;Humidity;BMP_temperature;BMP_pressure;BME280_temperature;BME280_humidity;BME280_pressure;Samples;Min_cycle;Max_cycle;Signal;HPM_P1;HPM_P2
2023/06/06 00:00:21;;;;;;;;;;;;;;;22.93;41.67;101427.66;5001278;28;4927;-67
2023/06/06 00:02:48;;;;;;;;;;;;;;;22.93;41.86;101421.88;5002090;28;5094;-66
2023/06/06 00:05:15;;;;;;;;;;;;;;;22.93;41.90;101421.88;5003875;28;4214;-66
2023/06/06 00:07:43;;;;;;;;;;;;;;;22.92;41.78;101426.16;5001419;28;4073;-65
2023/06/06 00:10:10;;;;;;;;;;;;;;;22.93;41.68;101421.88;5001787;28;4265;-67
2023/06/06 00:12:37;;;;;;;;;;;;;;;22.91;41.70;101418.91;5004223;28;4116;-67
2023/06/06 00:15:05;;;;;;;;;;;;;;;22.92;41.91;101419.63;4998290;28;4020;-66
2023/06/06 00:17:31;;;;;;;;;;;;;;;22.91;42.03;101418.91;5002561;28;4087;-67
2023/06/06 00:19:58;;;;;;;;;;;;;;;22.91;41.86;101407.34;5000497;28;3979;-66
2023/06/06 00:22:24;;;;;;;;;;;;;;;22.90;42.09;101417.41;4997545;28;4157;-66
2023/06/06 00:24:51;;;;;;;;;;;;;;;22.91;41.79;101404.47;5003942;28;4330;-66
2023/06/06 00:27:18;;;;;;;;;;;;;;;22.90;41.95;101417.41;5004916;28;4149;-67
2023/06/06 00:29:45;;;;;;;;;;;;;;;22.90;41.77;101405.84;5001188;28;3921;-66
2023/06/06 00:32:11;;;;;;;;;;;;;;;22.90;42.15;101405.09;4999088;28;5460;-66
2023/06/06 00:34:37;;;;;;;;;;;;;;;22.89;41.85;101407.25;5001593;28;3952;-66
2023/06/06 00:37:04;;;;;;;;;;;;;;;22.89;41.84;101404.38;5003255;28;4136;-66
2023/06/06 00:39:30;;;;;;;;;;;;;;;22.89;41.86;101413.03;5008561;28;4058;-67
2023/06/06 00:41:57;;;;;;;;;;;;;;;22.88;42.05;101408.63;5006300;28;4103;-66
2023/06/06 00:44:23;;;;;;;;;;;;;;;22.89;41.89;101409.41;5000767;28;4198;-66
2023/06/06 00:46:50;;;;;;;;;;;;;;;22.89;41.96;101403.63;5013975;28;4214;-66
2023/06/06 00:49:16;;;;;;;;;;;;;;;22.89;42.24;101404.38;4991077;28;4078;-66
2023/06/06 00:51:43;;;;;;;;;;;;;;;22.88;42.05;101396.34;4998336;28;4379;-66
2023/06/06 00:54:15;;;;;;;;;;;;;;;22.88;41.96;101405.75;4997567;28;4263;-66
2023/06/06 00:56:43;;;;;;;;;;;;;;;22.88;42.23;101411.53;5008798;28;4013;-66
2023/06/06 00:59:10;;;;;;;;;;;;;;;22.88;42.18;101402.88;5009560;28;4343;-66
2023/06/06 01:01:38;;;;;;;;;;;;;;;22.88;42.07;101417.31;5004783;28;4123;-66
2023/06/06 01:04:08;;;;;;;;;;;;;;;22.87;41.98;101415.81;4997486;28;4366;-66
2023/06/06 01:06:37;;;;;;;;;;;;;;;22.88;41.94;101413.66;4989315;28;4100;-66
2023/06/06 01:09:04;;;;;;;;;;;;;;;22.87;42.01;101407.16;5003391;28;4155;-66
2023/06/06 01:11:40;;;;;;;;;;;;;;;22.87;42.09;101409.31;4998649;28;4841;-66
2023/06/06 01:14:11;;;;;;;;;;;;;;;22.86;42.15;101399.91;5001858;28;4001;-66
2023/06/06 01:16:38;;;;;;;;;;;;;;;22.86;42.31;101405.69;4995531;28;4568;-66
2023/06/06 01:19:05;;;;;;;;;;;;;;;22.87;42.25;101403.53;4990594;28;4517;-66
2023/06/06 01:21:35;;;;;;;;;;;;;;;22.86;42.39;101399.91;4998567;28;4037;-66
2023/06/06 01:24:02;;;;;;;;;;;;;;;22.86;42.39;101399.91;4997734;28;4051;-66
2023/06/06 01:26:28;;;;;;;;;;;;;;;22.86;42.42;101399.16;5000754;28;4168;-66
2023/06/06 01:28:55;;;;;;;;;;;;;;;22.84;42.55;101402.69;4996320;28;4131;-66
2023/06/06 01:31:21;;;;;;;;;;;;;;;22.85;42.58;101386.84;4992539;28;4009;-66
2023/06/06 01:33:51;;;;;;;;;;;;;;;22.86;42.34;101393.38;5002707;28;4171;-66
2023/06/06 01:36:23;;;;;;;;;;;;;;;22.85;42.39;101392.63;5001711;28;4034;-66
2023/06/06 01:38:52;;;;;;;;;;;;;;;22.84;42.45;101382.50;5002450;28;4028;-66
2023/06/06 01:41:19;;;;;;;;;;;;;;;22.84;42.26;101385.38;5002545;28;4186;-66
2023/06/06 01:43:48;;;;;;;;;;;;;;;22.83;42.32;101395.41;5019651;28;4344;-66
2023/06/06 01:46:14;;;;;;;;;;;;;;;22.84;42.44;101396.94;5002388;28;4063;-66
2023/06/06 01:48:41;;;;;;;;;;;;;;;22.83;42.45;101398.31;5007441;28;4202;-67
2023/06/06 01:51:08;;;;;;;;;;;;;;;22.83;42.36;101401.19;5005086;28;4062;-66
2023/06/06 01:53:36;;;;;;;;;;;;;;;22.83;42.23;101401.19;5000512;28;4207;-67
2023/06/06 01:56:03;;;;;;;;;;;;;;;22.84;42.39;101407.72;4997487;28;3969;-66
2023/06/06 01:58:29;;;;;;;;;;;;;;;22.82;42.20;101399.72;4998183;28;4401;-67
2023/06/06 02:00:56;;;;;;;;;;;;;;;22.83;42.39;101406.22;4997728;28;4153;-66
2023/06/06 02:03:22;;;;;;;;;;;;;;;22.83;42.20;101406.97;5001200;28;4201;-67
2023/06/06 02:05:49;;;;;;;;;;;;;;;22.82;42.29;101405.50;4998597;28;4152;-66
2023/06/06 02:08:16;;;;;;;;;;;;;;;22.82;42.39;101408.38;5007750;28;4225;-66
2023/06/06 02:10:43;;;;;;;;;;;;;;;22.83;42.47;101417.78;5004024;28;4110;-66
2023/06/06 02:13:09;;;;;;;;;;;;;;;22.81;42.29;101404.00;5005695;28;4031;-66
2023/06/06 02:15:35;;;;;;;;;;;;;;;22.82;42.44;101407.66;5001977;28;4151;-66
2023/06/06 02:18:03;;;;;;;;;;;;;;;22.81;42.51;101404.00;5004315;28;4195;-66
2023/06/06 02:20:29;;;;;;;;;;;;;;;22.81;42.26;101409.75;5016032;28;4089;-66
2023/06/06 02:22:56;;;;;;;;;;;;;;;22.80;42.30;101403.25;5000962;28;4151;-66
2023/06/06 02:25:23;;;;;;;;;;;;;;;22.80;42.24;101414.06;5001107;28;3966;-65
2023/06/06 02:27:50;;;;;;;;;;;;;;;22.80;42.57;101408.28;5000074;28;4192;-65
2023/06/06 02:30:17;;;;;;;;;;;;;;;22.80;42.12;101414.81;5001564;28;4195;-65
2023/06/06 02:32:45;;;;;;;;;;;;;;;22.78;42.53;101411.09;5010989;28;5082;-66
2023/06/06 02:35:12;;;;;;;;;;;;;;;22.78;42.35;101400.28;4997240;28;5423;-65
2023/06/06 02:37:38;;;;;;;;;;;;;;;22.79;42.21;101398.13;4996276;28;4263;-65
2023/06/06 02:40:08;;;;;;;;;;;;;;;22.78;42.38;101399.53;5001887;28;4534;-65
2023/06/06 02:42:36;;;;;;;;;;;;;;;22.78;42.52;101405.31;4997647;28;4312;-66
2023/06/06 02:45:03;;;;;;;;;;;;;;;22.78;42.38;101393.75;4998006;28;4203;-66
2023/06/06 02:47:30;;;;;;;;;;;;;;;22.78;42.33;101393.75;4997289;28;4319;-66
2023/06/06 02:49:56;;;;;;;;;;;;;;;22.77;42.56;101392.28;4996680;28;4128;-65
2023/06/06 02:52:23;;;;;;;;;;;;;;;22.76;42.60;101391.50;4999391;28;4025;-65
2023/06/06 02:54:49;;;;;;;;;;;;;;;22.76;42.51;101391.50;5003054;28;4264;-65
2023/06/06 02:57:15;;;;;;;;;;;;;;;22.77;42.66;101389.41;5002159;28;4094;-65
2023/06/06 02:59:42;;;;;;;;;;;;;;;22.76;42.43;101391.50;5003649;28;4183;-65
2023/06/06 03:02:10;;;;;;;;;;;;;;;22.75;42.63;101383.53;5000127;28;4158;-65
2023/06/06 03:04:36;;;;;;;;;;;;;;;22.76;42.36;101390.78;5007422;28;4144;-65
2023/06/06 03:07:03;;;;;;;;;;;;;;;22.75;42.33;101392.19;5007809;28;4144;-65
2023/06/06 03:09:29;;;;;;;;;;;;;;;22.75;42.49;101392.19;5001067;28;4269;-65
2023/06/06 03:11:56;;;;;;;;;;;;;;;22.74;42.40;101382.75;5007189;28;4216;-65
2023/06/06 03:14:22;;;;;;;;;;;;;;;22.74;42.46;101382.03;4999462;28;4094;-65
2023/06/06 03:16:51;;;;;;;;;;;;;;;22.74;42.34;101384.91;5018717;28;4221;-65
2023/06/06 03:19:19;;;;;;;;;;;;;;;22.73;42.34;101380.53;5005628;28;4086;-65
2023/06/06 03:21:48;;;;;;;;;;;;;;;22.73;42.63;101380.53;5006004;28;4135;-65
2023/06/06 03:24:15;;;;;;;;;;;;;;;22.73;42.36;101381.28;5002090;28;4134;-65
2023/06/06 03:26:44;;;;;;;;;;;;;;;22.73;42.35;101386.31;5009717;28;4107;-66
2023/06/06 03:29:11;;;;;;;;;;;;;;;22.72;42.59;101384.81;5009903;28;4229;-65
2023/06/06 03:31:41;;;;;;;;;;;;;;;22.72;42.44;101387.69;5007525;28;4011;-65
2023/06/06 03:34:07;;;;;;;;;;;;;;;22.72;42.68;101381.94;5008191;28;4092;-65
2023/06/06 03:36:36;;;;;;;;;;;;;;;22.72;42.32;101381.94;5001058;28;4202;-65
2023/06/06 03:39:06;;;;;;;;;;;;;;;22.71;42.37;101384.06;5001065;28;4312;-65
2023/06/06 03:41:32;;;;;;;;;;;;;;;22.71;42.64;101384.06;5003291;28;4330;-65
2023/06/06 03:44:00;;;;;;;;;;;;;;;22.71;42.58;101380.44;5007802;28;3978;-65
2023/06/06 03:46:26;;;;;;;;;;;;;;;22.70;42.72;101382.59;5004367;28;4370;-65
2023/06/06 03:48:53;;;;;;;;;;;;;;;22.70;42.67;101387.59;5006088;28;4159;-65
2023/06/06 03:51:19;;;;;;;;;;;;;;;22.70;42.44;101384.72;5001527;28;4244;-65
2023/06/06 03:53:46;;;;;;;;;;;;;;;22.70;42.52;101381.84;5017390;28;4172;-65
2023/06/06 03:56:13;;;;;;;;;;;;;;;22.69;42.68;101374.59;5002177;28;4656;-65
2023/06/06 03:58:41;;;;;;;;;;;;;;;22.68;42.44;101378.88;5003153;28;4306;-65
2023/06/06 04:01:07;;;;;;;;;;;;;;;22.68;42.47;101381.78;4999354;28;4190;-65
2023/06/06 04:03:36;;;;;;;;;;;;;;;22.68;42.46;101376.72;5007095;28;4223;-65
2023/06/06 04:06:05;;;;;;;;;;;;;;;22.68;42.74;101385.41;5005699;28;4176;-65
2023/06/06 04:08:40;;;;;;;;;;;;;;;22.68;42.71;101376.00;5006484;28;4036;-65
2023/06/06 04:11:07;;;;;;;;;;;;;;;22.68;42.32;101376.00;5007735;28;4229;-65
2023/06/06 04:13:34;;;;;;;;;;;;;;;22.68;42.25;101373.09;5008570;28;4455;-65
2023/06/06 04:16:01;;;;;;;;;;;;;;;22.70;42.71;101378.94;4999097;28;4091;-65
2023/06/06 04:18:27;;;;;;;;;;;;;;;22.69;42.44;101371.69;5009020;28;4096;-65
2023/06/06 04:20:56;;;;;;;;;;;;;;;22.68;42.53;101379.63;5002363;28;4255;-66
2023/06/06 04:23:22;;;;;;;;;;;;;;;22.68;42.43;101384.66;5003060;28;4158;-66
2023/06/06 04:25:49;;;;;;;;;;;;;;;22.68;42.45;101385.41;5001086;28;4329;-66
2023/06/06 04:28:18;;;;;;;;;;;;;;;22.67;42.80;101378.13;5011788;28;4134;-66
2023/06/06 04:30:45;;;;;;;;;;;;;;;22.66;42.30;101381.66;5007647;28;4031;-66
2023/06/06 04:33:12;;;;;;;;;;;;;;;22.62;42.45;101376.44;5000260;28;4070;-66
2023/06/06 04:35:42;;;;;;;;;;;;;;;22.70;42.58;101388.38;5002810;28;4077;-66
2023/06/06 04:38:10;;;;;;;;;;;;;;;22.68;42.45;101382.50;5006183;28;4203;-67
2023/06/06 04:40:39;;;;;;;;;;;;;;;22.73;42.83;101377.66;4999631;28;4045;-63
2023/06/06 04:43:27;;;;;;;;;;;;;;;22.72;42.69;101379.81;5013732;28;4228;-65
2023/06/06 04:45:56;;;;;;;;;;;;;;;22.20;42.66;101383.88;4998343;28;4386;-64
2023/06/06 04:48:25;;;;;;;;;;;;;;;21.98;42.59;101378.50;4999188;28;4112;-63
2023/06/06 04:50:53;;;;;;;;;;;;;;;22.23;42.22;101382.59;5003280;28;4082;-63
2023/06/06 04:53:19;;;;;;;;;;;;;;;22.40;42.00;101379.03;5013692;28;4275;-63
2023/06/06 04:55:47;;;;;;;;;;;;;;;22.47;41.75;101377.19;5007741;28;4116;-63
2023/06/06 04:58:14;;;;;;;;;;;;;;;22.49;42.00;101375.13;5005973;28;4204;-64
2023/06/06 05:00:45;;;;;;;;;;;;;;;22.53;42.05;101381.09;4999665;28;4435;-63
2023/06/06 05:03:11;;;;;;;;;;;;;;;22.55;41.85;101377.56;5003483;28;4156;-64
2023/06/06 05:05:38;;;;;;;;;;;;;;;22.56;42.13;101382.69;5003538;28;4043;-64
2023/06/06 05:08:05;;;;;;;;;;;;;;;22.56;41.76;101374.03;5007206;28;4502;-64
2023/06/06 05:10:31;;;;;;;;;;;;;;;22.58;42.06;101379.16;5003986;28;4127;-64
2023/06/06 05:12:57;;;;;;;;;;;;;;;22.58;42.23;101382.03;5001646;28;4316;-63
2023/06/06 05:15:24;;;;;;;;;;;;;;;22.58;42.04;101382.78;5004019;28;4271;-64
2023/06/06 05:17:55;;;;;;;;;;;;;;;22.58;42.20;101374.09;5002429;28;4144;-63
2023/06/06 05:20:23;;;;;;;;;;;;;;;22.58;42.27;101373.38;5005497;28;4149;-64
2023/06/06 05:22:50;;;;;;;;;;;;;;;22.58;42.31;101382.78;5004523;28;4097;-63
2023/06/06 05:25:16;;;;;;;;;;;;;;;22.59;42.17;101380.66;5007312;28;4193;-64
2023/06/06 05:27:43;;;;;;;;;;;;;;;22.58;42.42;101382.78;5004024;28;4148;-64
2023/06/06 05:30:10;;;;;;;;;;;;;;;22.59;42.50;101381.38;5000730;28;4119;-64
2023/06/06 05:32:36;;;;;;;;;;;;;;;22.58;42.37;101382.78;5003923;28;4175;-63
2023/06/06 05:35:03;;;;;;;;;;;;;;;22.59;42.39;101381.38;5003789;28;4187;-63
2023/06/06 05:37:29;;;;;;;;;;;;;;;22.59;42.48;101381.38;5002486;28;4242;-63
2023/06/06 05:39:56;;;;;;;;;;;;;;;22.59;42.29;101383.53;5004016;28;4068;-63
2023/06/06 05:42:22;;;;;;;;;;;;;;;22.59;42.54;101384.28;5002197;28;4114;-65
2023/06/06 05:44:51;;;;;;;;;;;;;;;22.59;42.45;101383.53;5003375;28;4050;-65
2023/06/06 05:47:18;;;;;;;;;;;;;;;22.59;42.69;101381.38;5005857;28;4334;-65
2023/06/06 05:49:44;;;;;;;;;;;;;;;22.59;42.75;101381.38;5000792;28;4038;-65
2023/06/06 05:52:10;;;;;;;;;;;;;;;22.59;42.60;101389.31;5003195;28;4292;-65
2023/06/06 05:54:37;;;;;;;;;;;;;;;22.60;42.64;101390.78;4999852;28;4045;-65
2023/06/06 05:57:20;;;;;;;;;;;;;;;22.61;42.73;101408.84;5003382;28;4107;-64
2023/06/06 05:59:46;;;;;;;;;;;;;;;22.59;42.76;101404.47;5003396;28;4118;-65
2023/06/06 06:02:13;;;;;;;;;;;;;;;22.59;42.62;101395.09;5005535;28;4203;-65
2023/06/06 06:04:41;;;;;;;;;;;;;;;22.59;42.84;101395.81;5002480;28;4921;-64
2023/06/06 06:07:08;;;;;;;;;;;;;;;22.59;42.92;101413.13;5004954;28;4186;-64
2023/06/06 06:09:35;;;;;;;;;;;;;;;22.60;42.86;101408.09;5007108;28;4053;-65
2023/06/06 06:12:01;;;;;;;;;;;;;;;22.60;42.65;101413.88;5001275;28;4137;-65
2023/06/06 06:14:28;;;;;;;;;;;;;;;22.61;42.94;101408.84;4999836;28;4153;-65
2023/06/06 06:16:54;;;;;;;;;;;;;;;22.58;42.66;101416.66;5002474;28;4314;-64
2023/06/06 06:19:21;;;;;;;;;;;;;;;22.61;42.44;101417.50;5002262;28;4861;-66
2023/06/06 06:21:47;;;;;;;;;;;;;;;22.64;42.51;101413.34;5001189;28;4217;-68
2023/06/06 06:24:13;;;;;;;;;;;;;;;22.57;41.84;101421.69;5004486;28;4189;-68
2023/06/06 06:26:40;;;;;;;;;;;;;;;22.52;42.31;101422.19;5006308;28;4269;-69
2023/06/06 06:29:07;;;;;;;;;;;;;;;22.48;41.98;101414.06;5010580;28;4344;-69
2023/06/06 06:31:33;;;;;;;;;;;;;;;22.52;41.96;101417.16;5017418;28;4157;-68
2023/06/06 06:34:00;;;;;;;;;;;;;;;22.55;41.71;101423.75;5009005;28;4013;-69
2023/06/06 06:36:26;;;;;;;;;;;;;;;22.55;40.97;101423.75;5012393;28;4296;-68
2023/06/06 06:38:52;;;;;;;;;;;;;;;22.57;40.12;101429.63;5008996;28;4046;-68
2023/06/06 06:41:20;;;;;;;;;;;;;;;22.57;39.82;101415.94;5007298;28;4204;-69
2023/06/06 06:43:46;;;;;;;;;;;;;;;22.49;40.51;101427.09;5008795;28;4006;-68
2023/06/06 06:46:16;;;;;;;;;;;;;;;22.50;39.94;101422.81;5009440;28;4337;-68
2023/06/06 06:48:45;;;;;;;;;;;;;;;22.48;39.71;101428.50;5008079;28;4043;-68
2023/06/06 06:51:13;;;;;;;;;;;;;;;22.50;38.57;101424.97;5007243;28;4369;-69
2023/06/06 06:53:40;;;;;;;;;;;;;;;22.49;38.44;101421.31;5009883;28;4078;-69
2023/06/06 06:56:06;;;;;;;;;;;;;;;22.52;37.90;101422.91;5007230;28;4961;-68
2023/06/06 06:58:37;;;;;;;;;;;;;;;22.53;37.62;101424.41;5009857;28;4099;-69
2023/06/06 07:01:05;;;;;;;;;;;;;;;22.56;37.61;101419.47;5001510;28;4126;-69
2023/06/06 07:03:34;;;;;;;;;;;;;;;22.55;37.44;101424.50;5005114;28;4194;-69
2023/06/06 07:06:03;;;;;;;;;;;;;;;22.58;37.34;101423.19;5008675;28;4171;-69
2023/06/06 07:08:30;;;;;;;;;;;;;;;22.57;37.78;101427.47;5006798;28;4186;-68
2023/06/06 07:10:56;;;;;;;;;;;;;;;22.53;37.72;101432.31;5002936;28;4158;-68
2023/06/06 07:13:23;;;;;;;;;;;;;;;22.48;37.76;101425.59;5004584;28;4493;-68
2023/06/06 07:15:49;;;;;;;;;;;;;;;22.45;37.71;101424.03;5008793;28;4190;-68
2023/06/06 07:18:16;;;;;;;;;;;;;;;22.47;37.46;101429.91;5004484;28;4149;-69
2023/06/06 07:20:43;;;;;;;;;;;;;;;22.48;37.82;101421.97;5009642;28;4226;-69
2023/06/06 07:23:09;;;;;;;;;;;;;;;22.47;37.67;101429.91;5005642;28;4169;-68
2023/06/06 07:25:36;;;;;;;;;;;;;;;22.43;37.68;101423.19;5006195;28;3990;-68
2023/06/06 07:28:03;;;;;;;;;;;;;;;22.45;37.85;101429.81;5006077;28;4134;-69
2023/06/06 07:30:29;;;;;;;;;;;;;;;22.45;37.68;101432.69;5006222;28;4232;-69
2023/06/06 07:32:56;;;;;;;;;;;;;;;22.45;37.89;101432.69;5004603;28;4153;-68
2023/06/06 07:35:24;;;;;;;;;;;;;;;22.48;38.50;101427.75;5004446;28;4256;-68
2023/06/06 07:37:51;;;;;;;;;;;;;;;22.47;38.24;101426.25;5008485;28;4500;-69
2023/06/06 07:40:17;;;;;;;;;;;;;;;22.49;38.28;101424.19;5006600;28;4164;-69
2023/06/06 07:42:44;;;;;;;;;;;;;;;22.47;38.15;101432.78;5004863;28;5054;-69
2023/06/06 07:45:10;;;;;;;;;;;;;;;22.50;38.01;101434.38;5006427;28;4130;-69
2023/06/06 07:47:37;;;;;;;;;;;;;;;22.50;38.88;101433.63;5004165;28;4036;-68
2023/06/06 07:50:04;;;;;;;;;;;;;;;22.55;38.21;101435.28;5007850;28;4175;-68
2023/06/06 07:52:32;;;;;;;;;;;;;;;22.50;38.25;101431.47;5004113;28;4145;-69
2023/06/06 07:54:59;;;;;;;;;;;;;;;22.54;37.89;101428.78;5004740;28;4029;-68
2023/06/06 07:57:26;;;;;;;;;;;;;;;22.56;38.01;101431.00;5006013;28;3929;-68
2023/06/06 07:59:53;;;;;;;;;;;;;;;22.58;38.40;101434.72;5002424;28;4071;-69
2023/06/06 08:02:20;;;;;;;;;;;;;;;22.58;37.78;101431.84;5003368;28;4187;-69
2023/06/06 08:04:46;;;;;;;;;;;;;;;22.62;38.19;101427.66;5006540;28;4371;-69
2023/06/06 08:07:13;;;;;;;;;;;;;;;22.62;37.98;101427.66;5007167;28;4295;-69
2023/06/06 08:09:40;;;;;;;;;;;;;;;22.64;38.23;101431.38;5007995;28;4059;-68
2023/06/06 08:12:07;;;;;;;;;;;;;;;22.64;38.71;101431.38;5007479;28;4277;-67
2023/06/06 08:14:35;;;;;;;;;;;;;;;22.67;38.94;101441.63;5002082;28;4136;-68
2023/06/06 08:17:04;;;;;;;;;;;;;;;22.71;39.11;101435.31;5004992;28;4302;-68
2023/06/06 08:19:31;;;;;;;;;;;;;;;22.69;39.35;101426.53;5005811;28;4526;-68
2023/06/06 08:21:57;;;;;;;;;;;;;;;22.71;38.76;101429.53;5004740;28;4158;-72
2023/06/06 08:24:24;;;;;;;;;;;;;;;22.74;39.46;101428.97;5006073;28;4022;-71
2023/06/06 08:26:50;;;;;;;;;;;;;;;22.75;39.52;101436.22;5000333;28;4155;-69
2023/06/06 08:29:17;;;;;;;;;;;;;;;22.72;39.76;101431.00;5000339;28;4124;-68
2023/06/06 08:31:43;;;;;;;;;;;;;;;22.75;39.78;101426.84;5010085;28;4479;-69
2023/06/06 08:34:10;;;;;;;;;;;;;;;22.77;39.67;101419.00;5004234;28;4266;-69
2023/06/06 08:36:37;;;;;;;;;;;;;;;22.77;39.84;101424.03;5006575;28;4139;-70
2023/06/06 08:39:06;;;;;;;;;;;;;;;22.76;40.07;101419.66;5010161;28;4010;-70
2023/06/06 08:41:33;;;;;;;;;;;;;;;22.78;40.11;101429.16;5007054;28;4205;-69
2023/06/06 08:43:59;;;;;;;;;;;;;;;22.81;40.49;101429.97;5005245;28;4328;-69
2023/06/06 08:46:26;;;;;;;;;;;;;;;22.82;40.72;101422.09;5005754;28;4135;-69
2023/06/06 08:48:52;;;;;;;;;;;;;;;22.80;40.35;101420.56;5003543;28;4438;-69
2023/06/06 08:51:20;;;;;;;;;;;;;;;22.80;40.73;101419.84;5004268;28;4244;-69
2023/06/06 08:53:46;;;;;;;;;;;;;;;22.82;40.78;101427.84;5006075;28;4037;-69
2023/06/06 08:56:12;;;;;;;;;;;;;;;22.81;40.76;101421.31;5009677;28;4447;-69
2023/06/06 08:58:39;;;;;;;;;;;;;;;22.81;40.61;101418.44;5005372;28;3958;-69
2023/06/06 09:01:07;;;;;;;;;;;;;;;22.81;40.72;101427.09;5010445;28;4116;-68
2023/06/06 09:03:34;;;;;;;;;;;;;;;22.82;40.83;101422.09;5009174;28;4057;-69
2023/06/06 09:06:01;;;;;;;;;;;;;;;22.83;40.57;101423.56;5011224;28;4126;-72
2023/06/06 09:08:27;;;;;;;;;;;;;;;22.80;40.93;101422.72;5008316;28;4194;-72
2023/06/06 09:10:54;;;;;;;;;;;;;;;22.84;40.80;101420.03;5005238;28;4166;-71
2023/06/06 09:13:20;;;;;;;;;;;;;;;22.84;41.10;101425.81;5009442;28;4128;-72
2023/06/06 09:15:47;;;;;;;;;;;;;;;22.85;40.99;101426.53;5009278;28;4506;-67
2023/06/06 09:18:13;;;;;;;;;;;;;;;22.85;41.32;101421.50;5006046;28;4075;-71
2023/06/06 09:20:40;;;;;;;;;;;;;;;22.87;41.29;101424.47;5008703;28;4070;-71
2023/06/06 09:23:09;;;;;;;;;;;;;;;22.88;41.54;101425.22;5006293;28;4116;-71
2023/06/06 09:25:36;;;;;;;;;;;;;;;22.85;41.81;101426.53;5010327;28;4125;-69
2023/06/06 09:28:02;;;;;;;;;;;;;;;22.87;41.81;101427.38;5007243;28;4093;-71
2023/06/06 09:30:30;;;;;;;;;;;;;;;22.88;41.93;101425.97;5009427;28;4208;-71
2023/06/06 09:33:01;;;;;;;;;;;;;;;22.85;42.16;101418.63;5007178;28;4428;-70
2023/06/06 09:35:30;;;;;;;;;;;;;;;22.88;42.11;101420.19;5008781;28;4151;-72
2023/06/06 09:37:56;;;;;;;;;;;;;;;22.87;42.43;101423.75;5005540;28;4217;-71
2023/06/06 09:40:23;;;;;;;;;;;;;;;22.91;42.32;101430.44;5010075;28;4377;-72
2023/06/06 09:42:49;;;;;;;;;;;;;;;22.91;42.05;101435.50;5015710;28;3968;-72
2023/06/06 09:45:16;;;;;;;;;;;;;;;22.92;42.15;101425.41;5010564;28;3997;-71
2023/06/06 09:47:43;;;;;;;;;;;;;;;22.91;42.52;101430.44;5011089;28;4208;-72
2023/06/06 09:50:14;;;;;;;;;;;;;;;22.92;42.45;101429.03;5004736;28;4086;-71
2023/06/06 09:52:41;;;;;;;;;;;;;;;22.93;42.56;101427.66;5011343;28;4199;-71
2023/06/06 09:55:14;;;;;;;;;;;;;;;22.91;42.50;101424.69;5010377;28;4434;-72
2023/06/06 09:57:41;;;;;;;;;;;;;;;22.94;42.20;101426.25;5005064;28;3980;-70
2023/06/06 10:00:12;;;;;;;;;;;;;;;22.93;42.25;101427.66;5006614;28;3982;-73
2023/06/06 10:02:40;;;;;;;;;;;;;;;22.94;42.45;101423.34;5002967;28;4104;-71
2023/06/06 10:05:08;;;;;;;;;;;;;;;22.96;42.43;101425.59;5003803;28;4024;-72
2023/06/06 10:07:38;;;;;;;;;;;;;;;22.96;42.51;101426.34;5006924;28;4299;-71
2023/06/06 10:10:05;;;;;;;;;;;;;;;22.96;42.34;101419.81;5012418;28;4316;-72
2023/06/06 10:12:32;;;;;;;;;;;;;;;22.97;42.24;101427.81;5006062;28;4053;-73
2023/06/06 10:14:58;;;;;;;;;;;;;;;22.92;42.72;101426.16;5006207;28;5063;-70
2023/06/06 10:17:25;;;;;;;;;;;;;;;22.97;42.48;101430.72;5013860;28;4272;-71
2023/06/06 10:19:51;;;;;;;;;;;;;;;22.99;42.38;101433.72;5011972;28;4149;-70
2023/06/06 10:22:18;;;;;;;;;;;;;;;22.98;42.44;101429.31;5011272;28;4367;-70
2023/06/06 10:24:44;;;;;;;;;;;;;;;23.00;42.57;101425.81;5007833;28;3945;-71
2023/06/06 10:27:16;;;;;;;;;;;;;;;22.98;42.80;101417.78;5007967;28;4156;-71
2023/06/06 10:29:54;;;;;;;;;;;;;;;23.00;42.52;101426.56;5013949;28;5041;-70
2023/06/06 10:32:22;;;;;;;;;;;;;;;23.00;42.52;101437.38;5008100;28;4159;-70
2023/06/06 10:34:49;;;;;;;;;;;;;;;23.00;42.50;101438.09;5006202;28;4129;-69
2023/06/06 10:37:16;;;;;;;;;;;;;;;22.98;42.80;101434.34;5009770;28;4163;-69
2023/06/06 10:39:45;;;;;;;;;;;;;;;23.01;42.79;101438.84;5005165;28;4148;-70
2023/06/06 10:42:12;;;;;;;;;;;;;;;23.02;42.70;101433.81;5004826;28;3962;-70
2023/06/06 10:44:53;;;;;;;;;;;;;;;23.01;42.53;101438.84;5005605;28;4152;-70
2023/06/06 10:47:23;;;;;;;;;;;;;;;23.02;42.55;101433.81;5006560;28;4048;-70
2023/06/06 10:50:02;;;;;;;;;;;;;;;23.02;42.82;101434.56;5004712;28;4048;-70
2023/06/06 10:52:29;;;;;;;;;;;;;;;23.02;42.68;101428.03;5006418;28;4445;-70
2023/06/06 10:54:58;;;;;;;;;;;;;;;23.02;42.62;101428.03;5007829;28;4180;-70
2023/06/06 10:57:25;;;;;;;;;;;;;;;23.04;42.86;101428.88;5006639;28;4204;-70
2023/06/06 10:59:52;;;;;;;;;;;;;;;23.04;42.87;101425.97;4999821;28;4077;-70
2023/06/06 11:02:33;;;;;;;;;;;;;;;23.06;42.95;101428.22;5004409;28;4047;-69
2023/06/06 11:05:00;;;;;;;;;;;;;;;23.06;42.61;101416.66;5009509;28;4123;-70
2023/06/06 11:07:27;;;;;;;;;;;;;;;23.07;42.86;101423.94;5008045;28;4313;-69
2023/06/06 11:09:54;;;;;;;;;;;;;;;23.08;42.53;101413.88;5008468;28;4150;-69
2023/06/06 11:12:20;;;;;;;;;;;;;;;23.07;42.49;101421.06;5005998;28;4005;-69
2023/06/06 11:14:56;;;;;;;;;;;;;;;23.09;42.81;101415.34;5005199;28;3945;-69
2023/06/06 11:17:27;;;;;;;;;;;;;;;23.08;42.69;101416.75;5009452;28;4232;-69
2023/06/06 11:19:56;;;;;;;;;;;;;;;23.07;42.65;101409.50;5008831;28;4444;-69
2023/06/06 11:22:24;;;;;;;;;;;;;;;23.07;42.87;101413.13;5010092;28;3908;-69
2023/06/06 11:24:51;;;;;;;;;;;;;;;23.08;42.65;101414.59;5011837;28;4066;-68
2023/06/06 11:27:17;;;;;;;;;;;;;;;23.08;42.67;101408.09;5009621;28;4155;-69
2023/06/06 11:29:45;;;;;;;;;;;;;;;23.08;42.90;101416.75;5010518;28;3990;-70
2023/06/06 11:32:14;;;;;;;;;;;;;;;23.06;42.97;101417.41;5004702;28;4401;-69
2023/06/06 11:34:41;;;;;;;;;;;;;;;23.07;43.04;101409.50;5006843;28;4200;-69
2023/06/06 11:37:08;;;;;;;;;;;;;;;23.09;43.02;101403.78;5008421;28;4089;-70
2023/06/06 11:39:35;;;;;;;;;;;;;;;23.09;42.92;101406.69;5008318;28;4092;-70
2023/06/06 11:42:01;;;;;;;;;;;;;;;23.09;42.78;101416.09;5007486;28;3968;-69
2023/06/06 11:44:32;;;;;;;;;;;;;;;23.09;42.96;101415.34;5006775;28;4100;-69
2023/06/06 11:46:59;;;;;;;;;;;;;;;23.11;43.02;101395.22;5007268;28;4202;-69
2023/06/06 11:49:25;;;;;;;;;;;;;;;23.10;43.12;101399.50;5011469;28;4025;-69
2023/06/06 11:51:56;;;;;;;;;;;;;;;23.12;43.11;101408.28;5007906;28;3987;-69
2023/06/06 11:54:22;;;;;;;;;;;;;;;23.11;43.17;101401.00;5012006;28;4184;-69
2023/06/06 11:56:52;;;;;;;;;;;;;;;23.10;43.33;101403.16;5008460;28;4165;-69
2023/06/06 11:59:19;;;;;;;;;;;;;;;23.11;43.33;101401.00;5011073;28;4085;-69
2023/06/06 12:01:47;;;;;;;;;;;;;;;23.11;43.15;101409.66;5010942;28;4075;-69
2023/06/06 12:04:13;;;;;;;;;;;;;;;23.11;43.10;101418.31;5004769;28;3953;-69
2023/06/06 12:06:44;;;;;;;;;;;;;;;23.11;43.22;101406.78;5006095;28;4302;-69
2023/06/06 12:09:10;;;;;;;;;;;;;;;23.13;43.17;101403.97;5012099;28;4326;-69
2023/06/06 12:11:37;;;;;;;;;;;;;;;23.13;43.19;101401.81;5012849;28;4048;-69
2023/06/06 12:14:10;;;;;;;;;;;;;;;23.11;43.62;101406.78;5012243;28;4179;-69
2023/06/06 12:16:36;;;;;;;;;;;;;;;23.14;43.54;101399.69;5013231;28;4040;-69
2023/06/06 12:19:10;;;;;;;;;;;;;;;23.14;43.54;101402.59;5010554;28;4135;-69
2023/06/06 12:21:42;;;;;;;;;;;;;;;23.13;43.41;101401.09;5013646;28;4230;-69
2023/06/06 12:24:15;;;;;;;;;;;;;;;23.13;43.36;101389.53;5004720;28;4005;-68
2023/06/06 12:26:42;;;;;;;;;;;;;;;23.13;43.52;101386.63;5008335;28;4178;-69
2023/06/06 12:29:09;;;;;;;;;;;;;;;23.14;43.38;101394.66;5006278;28;4144;-69
2023/06/06 12:31:40;;;;;;;;;;;;;;;23.13;43.78;101386.63;5010087;28;4181;-70
2023/06/06 12:34:10;;;;;;;;;;;;;;;23.15;43.48;101395.41;5004605;28;4099;-70
2023/06/06 12:36:37;;;;;;;;;;;;;;;23.14;43.46;101386.00;5008842;28;4203;-70
2023/06/06 12:39:03;;;;;;;;;;;;;;;23.14;43.50;101383.09;5008851;28;4085;-70
2023/06/06 12:41:39;;;;;;;;;;;;;;;23.15;43.43;101390.34;5004729;28;4293;-70
2023/06/06 12:44:07;;;;;;;;;;;;;;;23.15;43.49;101386.72;5006411;28;3848;-70
2023/06/06 12:46:34;;;;;;;;;;;;;;;23.15;43.77;101389.63;5006298;28;4186;-69
2023/06/06 12:49:01;;;;;;;;;;;;;;;23.15;43.58;101390.34;5006692;28;3979;-70